Time;durP1;ratioP1;P1;durP2;ratioP2;P2;SDS_P1;SDS_P2;PMS_P1;PMS_P2;Temp;Humidity;BMP_temperature;BMP_pressure;BME280_temperature;BME280_humidity;BME280_pressure;Samples;Min_cycle;Max_cycle;Signal;HPM_P1;HPM_P2
2024/01/15 00:01:45;;;;;;;9.50;5.70;;;;;;;20.91;25.81;100173.05;103698;1283;62254;-82
2024/01/15 00:04:10;;;;;;;7.80;5.30;;;;;;;20.91;25.96;100175.58;103950;1282;62085;-83
2024/01/15 00:06:36;;;;;;;7.40;5.30;;;;;;;20.91;25.84;100177.89;103642;1283;62101;-83
2024/01/15 00:09:02;;;;;;;10.40;5.30;;;;;;;20.91;25.78;100175.74;103889;1285;62092;-83
2024/01/15 00:11:27;;;;;;;8.50;5.20;;;;;;;20.90;25.85;100175.63;103665;1283;62535;-82
2024/01/15 00:13:53;;;;;;;8.70;5.30;;;;;;;20.91;26.01;100177.44;103901;1283;62119;-83
2024/01/15 00:16:19;;;;;;;7.80;5.00;;;;;;;20.91;25.77;100180.80;103924;1283;62123;-83
2024/01/15 00:18:44;;;;;;;7.60;5.00;;;;;;;20.92;25.92;100181.80;104043;1281;62094;-82
2024/01/15 00:21:10;;;;;;;7.60;5.50;;;;;;;20.91;25.67;100188.23;103863;1283;62232;-82
2024/01/15 00:23:36;;;;;;;8.00;5.30;;;;;;;20.92;25.92;100187.33;103942;1285;62181;-82
2024/01/15 00:26:01;;;;;;;6.80;5.00;;;;;;;20.91;25.99;100182.70;103926;1283;62092;-84
2024/01/15 00:28:27;;;;;;;7.70;5.50;;;;;;;20.92;25.82;100183.58;103790;1283;62872;-83
2024/01/15 00:30:53;;;;;;;8.50;5.60;;;;;;;20.91;25.87;100179.14;103916;1283;62185;-82
2024/01/15 00:33:19;;;;;;;6.90;5.00;;;;;;;20.91;25.92;100185.91;103876;1285;72550;-83
2024/01/15 00:35:44;;;;;;;6.80;4.70;;;;;;;20.91;25.95;100190.60;103932;1281;62271;-83
2024/01/15 00:38:10;;;;;;;7.40;5.30;;;;;;;20.91;25.90;100190.95;103879;1285;62934;-83
2024/01/15 00:40:35;;;;;;;8.10;5.30;;;;;;;20.91;25.87;100189.33;103657;1283;62584;-82
2024/01/15 00:43:02;;;;;;;7.80;5.50;;;;;;;20.91;25.92;100187.35;103894;1283;62203;-83
2024/01/15 00:45:28;;;;;;;6.50;4.90;;;;;;;20.91;25.96;100182.17;103490;1291;72422;-83
2024/01/15 00:47:56;;;;;;;7.80;5.20;;;;;;;20.92;25.85;100180.52;103683;1283;62846;-82
2024/01/15 00:50:22;;;;;;;7.80;5.30;;;;;;;20.91;25.88;100181.45;103923;1283;62169;-82
2024/01/15 00:52:47;;;;;;;7.20;5.10;;;;;;;20.91;26.05;100179.70;103940;1283;62158;-83
2024/01/15 00:55:13;;;;;;;6.80;4.90;;;;;;;20.91;25.93;100177.16;103891;1283;62685;-83
2024/01/15 00:57:39;;;;;;;7.80;4.80;;;;;;;20.91;25.98;100174.29;103508;1284;62296;-83
2024/01/15 01:00:07;;;;;;;7.20;5.20;;;;;;;20.92;26.01;100174.25;103908;1283;62179;-82
2024/01/15 01:02:33;;;;;;;6.80;4.80;;;;;;;20.92;25.90;100170.86;103606;1283;62171;-82
2024/01/15 01:04:58;;;;;;;7.50;4.80;;;;;;;20.92;25.81;100169.09;103659;1283;62183;-82
2024/01/15 01:07:25;;;;;;;6.20;4.60;;;;;;;20.91;25.89;100170.36;103677;1283;63380;-83
2024/01/15 01:09:51;;;;;;;6.60;4.80;;;;;;;20.92;25.77;100170.11;103652;1283;62210;-83
2024/01/15 01:12:17;;;;;;;7.30;4.70;;;;;;;20.92;25.98;100173.18;103750;1283;62338;-83
2024/01/15 01:14:42;;;;;;;7.40;5.20;;;;;;;20.92;25.93;100169.42;103915;1283;62735;-82
2024/01/15 01:17:08;;;;;;;7.70;5.00;;;;;;;20.92;25.78;100174.79;103607;1285;63745;-82
2024/01/15 01:19:34;;;;;;;6.20;4.50;;;;;;;20.92;25.91;100168.69;103706;1283;62286;-83
2024/01/15 01:22:00;;;;;;;7.20;4.80;;;;;;;20.92;25.82;100173.89;103930;1283;62126;-82
2024/01/15 01:24:25;;;;;;;9.30;5.20;;;;;;;20.92;25.81;100171.55;103688;1283;62645;-83
2024/01/15 01:26:51;;;;;;;8.20;4.80;;;;;;;20.92;25.75;100169.38;103748;1283;62178;-83
2024/01/15 01:29:17;;;;;;;8.20;5.00;;;;;;;20.92;25.82;100165.65;103910;1281;73447;-84
2024/01/15 01:31:44;;;;;;;6.50;5.00;;;;;;;20.92;25.84;100162.27;103942;1282;62204;-83
2024/01/15 01:34:10;;;;;;;7.50;4.90;;;;;;;20.92;25.81;100165.81;103716;1283;62171;-83
2024/01/15 01:36:36;;;;;;;6.80;4.90;;;;;;;20.92;25.95;100166.36;103730;1283;62123;-83
2024/01/15 01:39:02;;;;;;;8.00;4.80;;;;;;;20.92;25.91;100167.96;103879;1285;62200;-84
2024/01/15 01:41:27;;;;;;;7.20;5.00;;;;;;;20.92;25.91;100167.97;104164;1282;63233;-83
2024/01/15 01:43:53;;;;;;;8.50;5.00;;;;;;;20.92;25.83;100162.93;103605;1283;62155;-83
2024/01/15 01:46:19;;;;;;;6.80;4.90;;;;;;;20.93;25.82;100158.82;103698;1283;62089;-83
2024/01/15 01:48:44;;;;;;;8.30;5.10;;;;;;;20.92;25.95;100157.39;104015;1283;62200;-82
2024/01/15 01:51:10;;;;;;;7.10;5.40;;;;;;;20.92;25.91;100156.13;103894;1283;62198;-83
2024/01/15 01:53:36;;;;;;;7.40;5.10;;;;;;;20.93;26.00;100156.85;103838;1283;62193;-83
2024/01/15 01:56:01;;;;;;;8.00;4.80;;;;;;;20.93;25.86;100153.45;103967;1281;62216;-83
2024/01/15 01:58:28;;;;;;;8.00;5.40;;;;;;;20.93;25.85;100150.20;103541;1283;62217;-83
2024/01/15 02:00:53;;;;;;;6.70;4.60;;;;;;;20.93;25.81;100146.79;103627;1287;62074;-83
2024/01/15 02:03:20;;;;;;;7.40;4.70;;;;;;;20.93;25.72;100144.31;103906;1283;62140;-83
2024/01/15 02:05:45;;;;;;;7.40;4.50;;;;;;;20.93;25.77;100143.23;103710;1282;63144;-83
2024/01/15 02:08:11;;;;;;;7.10;4.60;;;;;;;20.93;25.83;100143.94;103729;1282;63170;-83
2024/01/15 02:10:37;;;;;;;7.50;4.80;;;;;;;20.93;25.79;100143.95;103551;1281;62201;-83
2024/01/15 02:13:02;;;;;;;7.30;4.90;;;;;;;20.92;25.84;100137.21;103622;1288;62118;-83
2024/01/15 02:15:28;;;;;;;6.70;4.70;;;;;;;20.92;25.69;100136.27;104066;1283;62164;-81
2024/01/15 02:18:03;;;;;;;7.70;4.70;;;;;;;20.93;25.82;100133.77;103921;1283;62691;-83
2024/01/15 02:20:29;;;;;;;7.50;4.50;;;;;;;20.92;25.81;100130.04;103941;1281;62411;-83
2024/01/15 02:23:15;;;;;;;6.90;4.90;;;;;;;20.93;25.89;100126.77;103928;1283;62779;-82
2024/01/15 02:25:45;;;;;;;6.80;4.50;;;;;;;20.93;25.88;100128.73;103866;1281;75264;-84
2024/01/15 02:28:15;;;;;;;7.50;4.80;;;;;;;20.93;25.85;100131.98;103698;1282;62630;-82
2024/01/15 02:30:42;;;;;;;6.50;4.60;;;;;;;20.93;25.90;100131.05;103710;1283;62242;-82
2024/01/15 02:33:08;;;;;;;6.60;4.70;;;;;;;20.94;25.98;100130.30;103748;1287;62194;-83
2024/01/15 02:35:36;;;;;;;7.10;5.00;;;;;;;20.94;25.79;100126.17;103893;1287;62155;-82
2024/01/15 02:38:03;;;;;;;7.10;4.80;;;;;;;20.94;25.74;100127.05;103574;1283;62113;-81
2024/01/15 02:40:28;;;;;;;6.70;4.80;;;;;;;20.94;25.85;100121.19;103971;1283;62265;-81
2024/01/15 02:42:54;;;;;;;6.90;4.70;;;;;;;20.93;25.86;100120.85;103915;1283;62775;-82
2024/01/15 02:45:21;;;;;;;6.90;4.80;;;;;;;20.93;25.83;100120.14;103596;1288;62810;-83
2024/01/15 02:47:46;;;;;;;6.60;4.60;;;;;;;20.93;25.82;100116.38;103683;1281;62207;-83
2024/01/15 02:50:12;;;;;;;8.30;5.10;;;;;;;20.93;25.93;100116.40;103908;1284;62216;-83
2024/01/15 02:52:38;;;;;;;8.10;5.20;;;;;;;20.93;25.83;100116.91;103615;1283;62645;-82
2024/01/15 02:55:04;;;;;;;8.10;5.10;;;;;;;20.94;25.82;100117.95;103654;1283;62184;-84
2024/01/15 02:57:29;;;;;;;6.90;4.80;;;;;;;20.94;25.77;100123.14;103637;1283;75142;-83
2024/01/15 02:59:55;;;;;;;6.70;5.00;;;;;;;20.94;25.81;100125.46;103542;1287;62541;-83
2024/01/15 03:02:20;;;;;;;8.10;5.00;;;;;;;20.94;25.84;100121.90;103855;1283;62126;-82
2024/01/15 03:04:46;;;;;;;7.30;5.30;;;;;;;20.93;25.85;100118.15;103951;1285;62212;-82
2024/01/15 03:07:12;;;;;;;7.10;4.50;;;;;;;20.94;25.78;100114.37;103723;1283;62148;-83
2024/01/15 03:09:37;;;;;;;8.00;4.80;;;;;;;20.94;25.79;100110.98;103949;1283;75231;-82
2024/01/15 03:12:04;;;;;;;6.60;4.70;;;;;;;20.94;25.86;100112.41;103931;1283;62203;-83
2024/01/15 03:14:29;;;;;;;8.20;5.20;;;;;;;20.94;25.76;100111.69;103523;1288;62222;-83
2024/01/15 03:16:55;;;;;;;9.10;4.80;;;;;;;20.94;25.79;100111.30;103706;1283;63453;-83
2024/01/15 03:19:21;;;;;;;8.00;4.90;;;;;;;20.94;25.68;100112.91;103664;1287;62274;-83
2024/01/15 03:21:46;;;;;;;5.90;4.20;;;;;;;20.94;25.70;100113.28;103643;1283;62182;-83
2024/01/15 03:24:12;;;;;;;6.90;4.70;;;;;;;20.94;25.73;100105.40;103966;1283;62694;-83
2024/01/15 03:26:38;;;;;;;6.60;4.50;;;;;;;20.94;25.84;100106.46;103663;1283;62430;-82
2024/01/15 03:29:06;;;;;;;6.70;4.90;;;;;;;20.94;25.75;100101.67;103652;1281;72447;-82
2024/01/15 03:31:32;;;;;;;6.60;4.50;;;;;;;20.94;25.75;100097.18;103645;1288;62220;-83
2024/01/15 03:33:57;;;;;;;7.00;4.70;;;;;;;20.94;25.83;100099.86;103909;1283;62201;-83
2024/01/15 03:36:23;;;;;;;6.70;4.80;;;;;;;20.94;25.75;100101.98;103619;1283;62582;-83
2024/01/15 03:38:49;;;;;;;6.50;4.60;;;;;;;20.95;25.78;100102.13;103667;1283;63354;-83
2024/01/15 03:41:14;;;;;;;6.30;4.30;;;;;;;20.95;25.76;100102.86;103995;1283;62187;-82
2024/01/15 03:43:40;;;;;;;6.80;4.50;;;;;;;20.95;25.79;100106.61;104005;1283;74522;-82
2024/01/15 03:46:07;;;;;;;7.20;4.90;;;;;;;20.95;25.77;100112.13;104043;1281;62186;-82
2024/01/15 03:48:32;;;;;;;6.20;4.30;;;;;;;20.95;25.64;100115.36;103932;1283;62191;-83
2024/01/15 03:50:58;;;;;;;8.20;4.80;;;;;;;20.96;25.77;100114.79;103848;1283;62190;-83
2024/01/15 03:53:24;;;;;;;7.10;4.40;;;;;;;20.95;25.75;100114.48;103695;1283;62322;-82
2024/01/15 03:55:50;;;;;;;6.70;4.80;;;;;;;20.95;25.87;100110.16;103679;1288;62200;-84
2024/01/15 03:58:16;;;;;;;6.10;4.30;;;;;;;20.95;25.70;100113.58;103943;1283;62318;-83
2024/01/15 04:00:42;;;;;;;8.30;5.00;;;;;;;20.96;25.79;100111.91;103931;1285;62993;-83
2024/01/15 04:03:08;;;;;;;7.40;5.00;;;;;;;20.95;25.69;100114.27;103651;1283;72290;-83
2024/01/15 04:05:33;;;;;;;7.90;5.20;;;;;;;20.96;25.74;100116.77;103729;1283;62156;-83
2024/01/15 04:07:59;;;;;;;7.50;4.70;;;;;;;20.96;25.80;100118.02;103808;1283;62123;-82
2024/01/15 04:10:25;;;;;;;7.50;4.90;;;;;;;20.95;25.64;100118.40;103756;1283;62163;-82
2024/01/15 04:12:50;;;;;;;6.90;4.70;;;;;;;20.95;25.60;100114.45;103709;1283;63426;-81
2024/01/15 04:15:16;;;;;;;6.50;4.50;;;;;;;20.96;25.72;100113.72;103677;1288;62225;-83
2024/01/15 04:17:42;;;;;;;7.30;4.40;;;;;;;20.95;25.69;100113.03;103775;1283;62188;-82
2024/01/15 04:20:08;;;;;;;7.00;4.50;;;;;;;20.95;25.75;100112.49;103859;1283;62988;-82
2024/01/15 04:22:35;;;;;;;7.10;4.60;;;;;;;20.95;25.72;100113.04;103790;1282;62647;-82
2024/01/15 04:25:01;;;;;;;7.30;5.30;;;;;;;20.95;25.56;100114.83;103617;1287;62206;-83
2024/01/15 04:27:27;;;;;;;7.50;4.90;;;;;;;20.95;25.53;100116.64;103486;1283;62181;-83
2024/01/15 04:29:53;;;;;;;8.60;5.30;;;;;;;20.94;25.30;100116.84;103644;1283;62610;-82
2024/01/15 04:32:18;;;;;;;7.10;5.40;;;;;;;20.93;25.36;100120.48;103693;1282;62715;-82
2024/01/15 04:34:44;;;;;;;9.90;5.40;;;;;;;20.93;25.12;100120.88;103736;1282;62483;-81
2024/01/15 04:37:10;;;;;;;8.20;5.50;;;;;;;20.92;24.92;100115.40;103887;1283;62287;-82
2024/01/15 04:39:36;;;;;;;8.00;5.40;;;;;;;20.92;24.96;100113.02;103743;1282;75167;-82
2024/01/15 04:42:03;;;;;;;7.60;5.40;;;;;;;20.90;24.74;100110.71;103692;1283;62347;-82
2024/01/15 04:44:28;;;;;;;8.70;6.00;;;;;;;20.88;24.71;100110.41;103744;1282;62222;-82
2024/01/15 04:46:54;;;;;;;8.30;5.70;;;;;;;20.87;24.60;100111.33;103775;1283;62650;-83
2024/01/15 04:49:20;;;;;;;8.10;5.60;;;;;;;20.87;24.60;100110.85;103949;1282;62181;-81
2024/01/15 04:51:46;;;;;;;7.50;5.60;;;;;;;20.85;24.43;100112.73;103721;1283;62171;-82
2024/01/15 04:54:11;;;;;;;8.20;5.40;;;;;;;20.84;24.59;100105.13;103977;1282;62160;-82
2024/01/15 04:56:37;;;;;;;8.20;5.90;;;;;;;20.83;24.40;100108.10;104065;1282;62086;-81
2024/01/15 04:59:03;;;;;;;13.30;6.50;;;;;;;20.83;24.45;100107.79;103889;1282;62635;-82
2024/01/15 05:01:32;;;;;;;10.00;6.40;;;;;;;20.81;24.41;100106.27;103678;1288;62199;-82
2024/01/15 05:03:58;;;;;;;;;;;;;;;20.80;24.36;100100.32;104024;1282;62110;-82
2024/01/15 05:06:23;;;;;;;9.60;6.20;;;;;;;20.76;24.42;100101.54;103932;1282;62105;-82
2024/01/15 05:08:49;;;;;;;9.80;6.30;;;;;;;20.75;24.43;100093.71;103923;1283;71322;-81
2024/01/15 05:11:15;;;;;;;11.00;6.80;;;;;;;20.74;24.39;100091.46;103970;1283;62181;-81
2024/01/15 05:13:40;;;;;;;9.30;6.60;;;;;;;20.73;24.18;100089.90;104231;1285;62185;-80
2024/01/15 05:16:06;;;;;;;10.40;6.80;;;;;;;20.72;24.13;100086.59;104091;1282;62037;-81
2024/01/15 05:18:32;;;;;;;11.40;7.30;;;;;;;20.72;24.18;100084.31;103838;1288;63030;-81
2024/01/15 05:20:57;;;;;;;9.90;6.70;;;;;;;20.71;23.84;100080.26;104344;1283;62347;-81
2024/01/15 05:23:23;;;;;;;11.70;7.30;;;;;;;20.70;23.88;100074.78;104177;1287;62254;-81
2024/01/15 05:25:48;;;;;;;16.30;6.80;;;;;;;20.69;23.63;100076.15;104316;1281;62962;-81
2024/01/15 05:28:15;;;;;;;11.80;6.80;;;;;;;20.68;23.64;100075.13;104354;1282;62124;-81
2024/01/15 05:30:40;;;;;;;9.30;6.80;;;;;;;20.68;23.71;100079.23;104262;1286;62300;-82
2024/01/15 05:33:07;;;;;;;16.80;7.00;;;;;;;20.68;23.52;100072.61;104349;1282;62178;-83
2024/01/15 05:35:33;;;;;;;11.80;7.40;;;;;;;20.68;23.57;100071.23;104120;1283;62108;-82
2024/01/15 05:37:59;;;;;;;12.50;6.80;;;;;;;20.67;23.52;100074.64;103959;1282;62083;-84
2024/01/15 05:40:24;;;;;;;11.70;7.00;;;;;;;20.66;23.53;100071.52;104235;1282;62238;-82
2024/01/15 05:42:50;;;;;;;12.20;7.00;;;;;;;20.63;23.51;100070.86;104747;1282;62194;-81
2024/01/15 05:45:16;;;;;;;12.10;6.70;;;;;;;20.60;23.49;100072.17;104450;1285;72585;-83
2024/01/15 05:47:41;;;;;;;9.30;6.70;;;;;;;20.55;23.46;100069.35;104271;1283;62268;-82
2024/01/15 05:50:08;;;;;;;9.90;6.10;;;;;;;20.52;23.46;100071.39;104779;1282;62106;-81
2024/01/15 05:52:34;;;;;;;12.50;7.00;;;;;;;20.48;23.62;100073.66;104836;1282;63747;-81
2024/01/15 05:55:00;;;;;;;10.90;7.50;;;;;;;20.44;23.56;100070.75;104908;1283;62107;-81
2024/01/15 05:57:26;;;;;;;14.50;7.30;;;;;;;20.39;23.66;100063.64;105156;1282;62191;-83
2024/01/15 05:59:51;;;;;;;12.10;7.20;;;;;;;20.34;23.69;100067.63;105433;1282;62281;-81
2024/01/15 06:02:17;;;;;;;12.20;8.10;;;;;;;20.29;23.63;100069.85;104541;1282;62261;-80
2024/01/15 06:04:43;;;;;;;13.60;7.40;;;;;;;20.24;23.73;100066.80;104701;1283;62220;-81
2024/01/15 06:07:08;;;;;;;12.80;8.10;;;;;;;20.19;23.70;100065.92;104627;1288;62103;-79
2024/01/15 06:09:34;;;;;;;11.10;7.90;;;;;;;20.17;23.52;100062.93;104685;1282;60194;-80
2024/01/15 06:12:00;;;;;;;16.50;8.60;;;;;;;20.15;23.65;100062.04;104631;1282;62110;-81
2024/01/15 06:14:25;;;;;;;13.70;8.60;;;;;;;20.13;23.57;100054.50;104756;1282;61009;-81
2024/01/15 06:16:52;;;;;;;14.10;8.70;;;;;;;20.11;23.54;100058.05;104277;1285;62140;-81
2024/01/15 06:19:17;;;;;;;13.50;8.20;;;;;;;20.09;23.57;100056.23;104259;1285;72579;-80
2024/01/15 06:21:43;;;;;;;15.50;8.50;;;;;;;20.08;23.58;100050.91;104204;1285;60540;-81
2024/01/15 06:24:10;;;;;;;13.30;8.50;;;;;;;20.07;23.48;100046.34;104317;1288;62194;-81
2024/01/15 06:26:36;;;;;;;12.50;8.30;;;;;;;20.07;23.61;100048.88;106324;1285;59944;-80
2024/01/15 06:29:02;;;;;;;12.90;8.20;;;;;;;20.06;23.52;100050.38;106352;1285;59554;-81
2024/01/15 06:31:28;;;;;;;12.90;8.40;;;;;;;20.05;23.61;100049.17;106354;1285;60036;-81
2024/01/15 06:33:55;;;;;;;14.80;8.60;;;;;;;20.04;23.48;100052.61;106354;1285;59373;-81
2024/01/15 06:36:21;;;;;;;15.10;9.00;;;;;;;20.04;23.47;100051.95;106486;1285;59901;-81
2024/01/15 06:38:47;;;;;;;14.30;9.10;;;;;;;20.03;23.35;100047.77;106430;1286;60514;-80
2024/01/15 06:41:13;;;;;;;13.90;9.40;;;;;;;20.02;23.44;100048.18;106295;1285;60774;-80
2024/01/15 06:43:38;;;;;;;15.40;9.00;;;;;;;20.02;23.29;100052.11;106399;1285;60349;-80
2024/01/15 06:46:04;;;;;;;12.80;8.90;;;;;;;20.03;23.26;100054.34;106314;1285;60208;-81
2024/01/15 06:48:30;;;;;;;13.50;8.50;;;;;;;20.06;23.25;100061.30;106530;1282;60344;-80
2024/01/15 06:50:56;;;;;;;13.50;9.30;;;;;;;20.09;23.35;100062.29;106321;1285;59990;-81
2024/01/15 06:53:22;;;;;;;18.30;9.10;;;;;;;20.14;23.26;100060.85;105382;1283;62116;-81
2024/01/15 06:55:49;;;;;;;14.00;8.20;;;;;;;20.16;23.10;100052.83;105188;1282;60699;-82
2024/01/15 06:58:14;;;;;;;15.20;8.40;;;;;;;20.16;23.64;100049.75;105244;1282;62138;-81
2024/01/15 07:00:40;;;;;;;17.80;9.50;;;;;;;20.16;24.19;100049.95;105364;1282;62059;-80
2024/01/15 07:03:06;;;;;;;17.00;9.00;;;;;;;20.16;24.46;100053.92;105695;1287;60309;-80
2024/01/15 07:05:32;;;;;;;16.20;9.00;;;;;;;20.14;24.54;100057.40;105844;1282;62206;-80
2024/01/15 07:07:58;;;;;;;17.00;10.30;;;;;;;20.15;24.72;100061.27;105967;1283;59967;-80
2024/01/15 07:10:24;;;;;;;16.80;10.30;;;;;;;20.15;24.65;100062.00;105556;1286;62045;-81
2024/01/15 07:12:49;;;;;;;16.30;10.90;;;;;;;20.15;24.67;100066.11;104942;1288;62040;-81
2024/01/15 07:15:15;;;;;;;15.80;10.50;;;;;;;20.16;24.72;100062.77;104732;1283;60571;-80
2024/01/15 07:17:42;;;;;;;16.10;10.50;;;;;;;20.19;24.61;100050.75;105054;1282;62344;-80
2024/01/15 07:20:08;;;;;;;16.50;9.90;;;;;;;20.23;24.67;100057.58;105076;1283;62170;-80
2024/01/15 07:22:35;;;;;;;15.20;9.70;;;;;;;20.26;24.72;100056.80;104868;1282;60326;-80
2024/01/15 07:25:02;;;;;;;16.40;9.40;;;;;;;20.29;24.81;100047.81;105027;1282;62574;-79
2024/01/15 07:27:27;;;;;;;20.80;9.70;;;;;;;20.33;24.87;100046.14;105122;1282;62185;-80
2024/01/15 07:29:53;;;;;;;21.70;9.40;;;;;;;20.35;24.78;100051.45;104959;1282;60493;-81
2024/01/15 07:32:20;;;;;;;16.30;9.10;;;;;;;20.38;24.86;100055.33;104991;1283;60995;-81
2024/01/15 07:34:46;;;;;;;14.90;9.20;;;;;;;20.40;24.82;100055.14;104885;1282;72360;-80
2024/01/15 07:37:11;;;;;;;16.90;9.20;;;;;;;20.42;25.06;100050.91;104854;1282;60374;-81
2024/01/15 07:39:37;;;;;;;44.70;10.90;;;;;;;20.45;25.17;100057.52;104393;1282;568975;-80
2024/01/15 07:42:03;;;;;;;29.00;9.90;;;;;;;20.48;25.21;100061.21;104758;1282;61787;-80
2024/01/15 07:44:29;;;;;;;35.50;9.80;;;;;;;20.50;25.20;100063.85;104963;1285;62123;-80
2024/01/15 07:46:54;;;;;;;39.50;9.30;;;;;;;20.52;25.33;100065.45;104590;1283;62075;-80
2024/01/15 07:49:20;;;;;;;33.60;9.80;;;;;;;20.55;25.49;100063.05;104807;1282;76116;-80
2024/01/15 07:51:46;;;;;;;24.90;8.30;;;;;;;20.58;25.74;100064.98;105468;1283;59794;-81
2024/01/15 07:54:12;;;;;;;19.40;8.80;;;;;;;20.61;25.47;100061.77;105292;1282;62174;-81
2024/01/15 07:57:01;;;;;;;22.50;9.50;;;;;;;20.56;25.80;100058.55;105254;1283;62105;-81
2024/01/15 07:59:27;;;;;;;18.50;8.50;;;;;;;20.49;26.27;100060.05;105316;1283;74126;-78
2024/01/15 08:01:52;;;;;;;21.20;8.30;;;;;;;20.44;26.43;100056.34;105396;1282;61233;-80
2024/01/15 08:04:19;;;;;;;21.20;8.60;;;;;;;20.42;26.40;100056.30;105408;1283;60946;-80
2024/01/15 08:06:45;;;;;;;21.50;8.80;;;;;;;20.42;26.43;100057.89;105429;1283;62181;-78
2024/01/15 08:09:11;;;;;;;18.50;8.20;;;;;;;20.42;26.33;100058.92;105149;1283;62142;-79
2024/01/15 08:11:40;;;;;;;16.30;8.40;;;;;;;20.44;26.32;100058.59;104998;1282;62159;-79
2024/01/15 08:14:05;;;;;;;;;;;;;;;20.46;26.24;100056.83;106401;1285;61179;-80
2024/01/15 08:16:31;;;;;;;17.70;8.40;;;;;;;20.46;26.30;100059.88;106083;1283;60834;-78
2024/01/15 08:18:57;;;;;;;15.80;7.90;;;;;;;20.51;26.54;100062.02;106165;1282;61127;-80
2024/01/15 08:21:23;;;;;;;19.50;7.80;;;;;;;20.54;26.65;100056.41;106226;1283;60530;-78
2024/01/15 08:23:48;;;;;;;15.90;7.80;;;;;;;20.58;26.52;100057.89;106527;1282;60589;-79
2024/01/15 08:26:14;;;;;;;14.70;8.00;;;;;;;20.61;26.53;100053.17;106631;1282;60977;-80
2024/01/15 08:28:40;;;;;;;13.50;7.70;;;;;;;20.64;26.50;100049.19;106084;1286;73477;-81
2024/01/15 08:31:05;;;;;;;16.40;8.40;;;;;;;20.67;26.60;100043.92;106212;1283;61198;-79
2024/01/15 08:33:31;;;;;;;17.30;8.20;;;;;;;20.70;26.63;100047.79;106246;1288;60255;-80
2024/01/15 08:35:56;;;;;;;15.60;7.70;;;;;;;20.73;26.67;100047.74;106444;1283;60200;-78
2024/01/15 08:38:22;;;;;;;13.90;7.70;;;;;;;20.75;26.76;100047.94;106555;1283;60869;-79
2024/01/15 08:40:49;;;;;;;15.20;7.10;;;;;;;20.78;26.72;100044.30;106248;1283;61325;-80
2024/01/15 08:43:15;;;;;;;15.70;7.60;;;;;;;20.82;26.85;100035.94;106271;1281;75189;-79
2024/01/15 08:45:40;;;;;;;13.80;8.40;;;;;;;20.85;26.82;100026.05;106405;1283;60266;-79
2024/01/15 08:48:06;;;;;;;20.80;8.00;;;;;;;20.88;26.87;100019.89;106171;1281;60061;-80
2024/01/15 08:50:32;;;;;;;17.70;8.20;;;;;;;20.90;27.06;100013.21;106232;1282;60143;-78
2024/01/15 08:52:58;;;;;;;27.90;8.70;;;;;;;20.91;27.06;100019.42;106211;1285;59810;-83
2024/01/15 08:55:24;;;;;;;16.80;7.70;;;;;;;20.92;27.11;100020.25;106490;1283;60445;-80
2024/01/15 08:57:50;;;;;;;26.50;7.60;;;;;;;20.89;27.18;100022.30;106808;1283;60515;-79
2024/01/15 09:00:17;;;;;;;17.50;7.90;;;;;;;20.85;27.32;100017.77;106570;1283;62514;-79
2024/01/15 09:02:42;;;;;;;16.70;8.30;;;;;;;20.79;27.60;100004.71;106525;1285;72444;-80
2024/01/15 09:05:08;;;;;;;23.50;7.70;;;;;;;20.75;27.99;99999.48;106513;1283;61221;-78
2024/01/15 09:07:34;;;;;;;23.30;8.30;;;;;;;20.73;28.49;99991.54;106508;1283;60503;-80
2024/01/15 09:09:59;;;;;;;21.70;8.50;;;;;;;20.70;28.54;99989.10;106525;1283;60445;-80
2024/01/15 09:12:26;;;;;;;17.00;7.70;;;;;;;20.67;28.57;99985.05;106585;1282;60858;-79
2024/01/15 09:14:53;;;;;;;24.70;7.90;;;;;;;20.67;28.43;99980.65;106381;1288;60959;-78
2024/01/15 09:17:21;;;;;;;22.50;8.00;;;;;;;20.65;28.52;99984.17;106582;1282;60445;-79
2024/01/15 09:19:47;;;;;;;22.90;8.00;;;;;;;20.64;28.42;99984.98;106496;1282;60253;-79
2024/01/15 09:22:14;;;;;;;20.10;7.90;;;;;;;20.64;28.36;99984.46;106504;1282;60297;-79
2024/01/15 09:24:41;;;;;;;21.80;7.30;;;;;;;20.63;28.49;99968.97;106626;1283;60672;-79
2024/01/15 09:27:07;;;;;;;29.30;7.80;;;;;;;20.63;28.61;99964.54;106661;1283;59834;-80
2024/01/15 09:29:33;;;;;;;22.40;8.00;;;;;;;20.62;28.70;99956.51;106447;1282;60442;-79
2024/01/15 09:31:58;;;;;;;16.50;8.20;;;;;;;20.63;29.00;99948.99;106339;1282;60271;-79
2024/01/15 09:34:24;;;;;;;26.50;8.10;;;;;;;20.62;29.03;99947.25;106565;1283;59888;-79
2024/01/15 09:36:50;;;;;;;21.70;7.60;;;;;;;20.62;29.15;99944.38;106597;1282;60138;-80
2024/01/15 09:39:15;;;;;;;19.10;7.50;;;;;;;20.62;29.40;99935.43;106844;1283;60738;-79
2024/01/15 09:41:41;;;;;;;20.40;7.10;;;;;;;20.62;29.44;99931.30;104579;1282;62104;-78
2024/01/15 09:44:09;;;;;;;22.40;7.10;;;;;;;20.62;29.44;99920.60;104264;1288;62267;-79
2024/01/15 09:46:35;;;;;;;17.70;7.20;;;;;;;20.61;29.66;99923.16;104770;1287;75548;-80
2024/01/15 09:49:09;;;;;;;18.10;7.20;;;;;;;20.60;29.68;99919.15;104661;1282;62165;-79
2024/01/15 09:51:34;;;;;;;23.60;7.00;;;;;;;20.59;29.80;99912.42;105269;1283;62161;-82
2024/01/15 09:54:00;;;;;;;12.10;5.90;;;;;;;20.55;29.76;99908.30;106102;1283;60905;-82
2024/01/15 09:56:26;;;;;;;19.20;6.50;;;;;;;20.41;29.14;99899.76;105229;1287;60245;-82
2024/01/15 09:58:52;;;;;;;22.20;6.40;;;;;;;20.26;28.89;99897.10;106175;1283;60069;-81
2024/01/15 10:01:19;;;;;;;15.00;6.80;;;;;;;20.19;28.85;99892.52;106180;1283;61977;-81
2024/01/15 10:03:44;;;;;;;16.80;6.70;;;;;;;20.11;28.94;99895.15;106028;1283;59698;-81
2024/01/15 10:06:10;;;;;;;19.40;6.60;;;;;;;20.00;28.82;99894.39;106330;1287;61472;-81
2024/01/15 10:08:36;;;;;;;24.70;7.10;;;;;;;19.95;28.97;99886.91;106153;1288;60894;-81
2024/01/15 10:11:04;;;;;;;13.40;6.50;;;;;;;19.94;28.99;99884.90;105865;1282;59892;-80
2024/01/15 10:13:30;;;;;;;27.10;6.50;;;;;;;19.92;29.05;99883.38;104928;1283;61923;-80
2024/01/15 10:15:56;;;;;;;21.50;6.40;;;;;;;19.91;29.06;99877.59;105076;1283;62193;-80
2024/01/15 10:18:21;;;;;;;21.50;6.70;;;;;;;19.90;29.21;99869.66;104768;1286;62041;-81
2024/01/15 10:20:47;;;;;;;17.30;6.30;;;;;;;19.90;29.28;99866.60;104746;1283;62231;-81
2024/01/15 10:23:14;;;;;;;19.10;7.10;;;;;;;19.90;29.15;99860.88;104684;1288;62289;-80
2024/01/15 10:25:42;;;;;;;16.30;6.40;;;;;;;19.90;29.17;99852.15;105328;1286;62054;-81
2024/01/15 10:28:08;;;;;;;20.30;6.40;;;;;;;19.91;29.33;99847.92;105599;1282;63269;-81
2024/01/15 10:30:34;;;;;;;20.60;7.30;;;;;;;19.92;29.44;99842.70;105504;1288;62188;-82
2024/01/15 10:33:01;;;;;;;14.80;6.60;;;;;;;19.92;29.50;99848.02;105744;1286;61958;-82
2024/01/15 10:35:30;;;;;;;21.50;6.50;;;;;;;19.93;29.70;99851.88;105912;1285;62100;-80
2024/01/15 10:37:56;;;;;;;19.60;6.30;;;;;;;19.95;29.92;99853.56;106025;1285;75206;-80
2024/01/15 10:40:21;;;;;;;13.20;5.60;;;;;;;19.94;29.98;99848.98;105751;1285;61283;-82
2024/01/15 10:42:47;;;;;;;19.00;6.10;;;;;;;19.92;29.86;99842.65;105995;1285;66049;-81
2024/01/15 10:45:14;;;;;;;15.20;6.00;;;;;;;19.92;29.97;99838.08;104827;1286;62238;-80
2024/01/15 10:47:44;;;;;;;21.80;6.30;;;;;;;19.92;30.18;99829.08;105077;1283;62097;-80
2024/01/15 10:50:10;;;;;;;14.50;5.00;;;;;;;19.94;30.26;99834.35;105092;1285;60839;-80
2024/01/15 10:52:45;;;;;;;18.30;6.60;;;;;;;19.96;30.35;99839.20;105131;1288;62142;-80
2024/01/15 10:55:11;;;;;;;16.60;6.40;;;;;;;19.96;30.44;99831.99;105765;1283;74511;-81
2024/01/15 10:57:37;;;;;;;16.10;6.20;;;;;;;19.97;30.35;99826.10;106256;1282;60917;-85
2024/01/15 11:00:05;;;;;;;19.80;5.20;;;;;;;19.95;30.39;99820.98;106453;1282;59752;-82
2024/01/15 11:02:35;;;;;;;23.90;5.60;;;;;;;19.94;30.34;99816.67;106354;1283;61861;-81
2024/01/15 11:05:01;;;;;;;17.70;6.40;;;;;;;19.90;30.10;99809.33;106389;1285;72591;-81
2024/01/15 11:07:26;;;;;;;20.70;6.10;;;;;;;19.77;30.15;99806.92;106571;1283;61052;-81
2024/01/15 11:09:52;;;;;;;14.30;5.60;;;;;;;19.70;30.32;99804.99;106591;1285;60708;-82